Time;durP1;ratioP1;P1;durP2;ratioP2;P2;SDS_P1;SDS_P2;PMS_P1;PMS_P2;Temp;Humidity;BMP_temperature;BMP_pressure;BME280_temperature;BME280_humidity;BME280_pressure;Samples;Min_cycle;Max_cycle;Signal;HPM_P1;HPM_P2
2022/05/22 00:00:58;;;;;;;6.70;5.50;;;;;;;8.25;100.00;96760.34;10370156;28;20224;-73
2022/05/22 00:05:59;;;;;;;11.87;5.70;;;;;;;8.27;100.00;96755.78;10369898;28;20228;-73
2022/05/22 00:10:59;;;;;;;10.20;6.27;;;;;;;8.25;100.00;96753.31;10352646;28;20200;-73
2022/05/22 00:21:18;;;;;;;10.93;6.17;;;;;;;8.27;100.00;96754.03;10370017;28;20268;-73
2022/05/22 00:26:19;;;;;;;14.70;5.63;;;;;;;8.36;100.00;96754.94;10371347;28;20221;-74
2022/05/22 00:31:19;;;;;;;11.97;6.53;;;;;;;8.21;100.00;96744.97;10359679;28;20204;-74
2022/05/22 00:36:20;;;;;;;8.17;5.23;;;;;;;8.26;100.00;96741.13;10359384;28;20243;-74
2022/05/22 00:41:20;;;;;;;10.13;6.40;;;;;;;8.07;100.00;96742.81;10377072;28;20197;-74
2022/05/22 00:46:22;;;;;;;8.73;6.50;;;;;;;7.98;100.00;96749.69;10376667;28;20217;-73
2022/05/22 00:51:31;;;;;;;11.60;6.60;;;;;;;8.00;100.00;96747.75;10376586;28;20653;-73
2022/05/22 00:56:36;;;;;;;9.50;5.73;;;;;;;7.95;100.00;96744.75;10358938;28;20603;-73
2022/05/22 01:01:37;;;;;;;8.60;5.67;;;;;;;8.08;100.00;96741.81;10375826;28;20206;-73
2022/05/22 01:06:37;;;;;;;12.40;6.17;;;;;;;7.96;100.00;96741.19;10342494;28;20233;-72
2022/05/22 01:11:45;;;;;;;15.47;6.73;;;;;;;8.03;100.00;96736.22;10359198;28;20561;-73
2022/05/22 01:16:46;;;;;;;10.57;6.20;;;;;;;8.14;100.00;96724.78;10375887;28;20181;-74
2022/05/22 01:21:54;;;;;;;11.00;6.87;;;;;;;8.09;100.00;96727.00;10357949;28;20209;-73
2022/05/22 01:27:00;;;;;;;12.63;6.17;;;;;;;8.14;100.00;96720.38;10357453;28;20220;-73
2022/05/22 01:32:07;;;;;;;9.30;6.00;;;;;;;8.15;100.00;96729.88;10342180;28;20208;-74
2022/05/22 01:37:09;;;;;;;14.03;6.33;;;;;;;8.11;100.00;96723.28;10356815;28;20181;-73
2022/05/22 01:42:12;;;;;;;7.43;5.53;;;;;;;8.09;100.00;96724.41;10357390;28;20196;-73
2022/05/22 01:47:12;;;;;;;10.23;6.50;;;;;;;8.16;100.00;96728.06;10356527;28;20217;-73
2022/05/22 01:52:13;;;;;;;11.83;6.40;;;;;;;8.26;100.00;96730.69;10374683;28;20196;-73
2022/05/22 01:57:15;;;;;;;10.10;6.10;;;;;;;8.33;100.00;96731.72;10355985;28;20233;-74
2022/05/22 02:02:16;;;;;;;9.53;5.80;;;;;;;8.29;100.00;96730.41;10356492;28;20189;-74
2022/05/22 02:12:37;;;;;;;7.97;6.17;;;;;;;8.34;100.00;96721.16;10356287;28;20188;-74
2022/05/22 02:17:39;;;;;;;13.30;5.83;;;;;;;8.43;100.00;96713.44;10355849;28;20205;-75
2022/05/22 02:22:50;;;;;;;9.97;6.10;;;;;;;8.47;100.00;96713.06;10373093;28;20272;-75
2022/05/22 02:27:51;;;;;;;11.83;6.23;;;;;;;8.59;100.00;96715.47;10354945;28;20220;-74
2022/05/22 02:32:52;;;;;;;13.70;6.90;;;;;;;8.55;100.00;96710.53;10355550;28;20189;-75
2022/05/22 02:37:54;;;;;;;9.03;6.13;;;;;;;8.81;100.00;96715.09;10355149;28;20189;-74
2022/05/22 02:43:05;;;;;;;12.30;6.53;;;;;;;8.92;100.00;96712.28;10354759;28;20189;-74
2022/05/22 02:48:07;;;;;;;10.33;5.57;;;;;;;8.93;100.00;96721.78;10353877;28;20240;-74
2022/05/22 02:53:08;;;;;;;10.63;5.80;;;;;;;8.87;100.00;96713.69;10354301;28;20292;-74
2022/05/22 02:58:28;;;;;;;11.73;5.80;;;;;;;8.88;100.00;96710.94;10357118;28;20285;-74
2022/05/22 03:03:29;;;;;;;10.53;5.97;;;;;;;8.90;100.00;96714.22;10371731;28;20271;-74
2022/05/22 03:08:32;;;;;;;12.33;6.63;;;;;;;9.10;100.00;96709.72;10371133;28;20359;-74
2022/05/22 03:13:33;;;;;;;13.03;6.43;;;;;;;9.22;100.00;96699.88;10353804;28;20280;-74
2022/05/22 03:18:33;;;;;;;12.17;7.00;;;;;;;9.30;100.00;96693.91;10371207;28;20268;-74
2022/05/22 03:23:37;;;;;;;15.90;7.40;;;;;;;9.39;100.00;96690.38;10353095;28;20193;-74
2022/05/22 03:28:38;;;;;;;14.87;7.60;;;;;;;9.43;100.00;96696.97;10353376;28;20582;-74
2022/05/22 03:33:38;;;;;;;10.83;6.47;;;;;;;9.34;100.00;96691.78;10336890;28;20196;-74
2022/05/22 03:38:39;;;;;;;13.67;7.70;;;;;;;9.35;100.00;96696.06;10353158;28;20197;-74
2022/05/22 03:43:40;;;;;;;14.50;7.70;;;;;;;9.39;100.00;96695.63;10352948;28;20276;-74
2022/05/22 03:48:59;;;;;;;16.40;7.67;;;;;;;9.49;100.00;96685.06;10352989;28;20569;-74
2022/05/22 03:54:06;;;;;;;12.60;7.53;;;;;;;9.39;100.00;96684.34;10352616;28;20729;-74
2022/05/22 03:59:14;;;;;;;11.93;6.90;;;;;;;9.61;100.00;96685.66;10352692;28;20196;-74
2022/05/22 04:04:14;;;;;;;15.07;7.07;;;;;;;9.72;100.00;96690.66;10361115;28;20703;-74
2022/05/22 04:09:15;;;;;;;13.67;7.80;;;;;;;9.73;100.00;96694.09;10360529;28;20221;-74
2022/05/22 04:14:32;;;;;;;16.87;8.37;;;;;;;9.62;100.00;96684.72;10360965;28;20623;-74
2022/05/22 04:19:40;;;;;;;14.97;8.77;;;;;;;9.78;100.00;96694.47;10345445;28;20276;-74
2022/05/22 04:30:06;;;;;;;12.73;8.00;;;;;;;9.87;100.00;96693.56;10359694;28;20193;-74
2022/05/22 04:35:17;;;;;;;15.17;7.50;;;;;;;10.02;100.00;96695.63;10360589;28;20277;-74
2022/05/22 04:40:18;;;;;;;14.20;6.93;;;;;;;10.09;100.00;96700.09;10359832;28;20212;-74
2022/05/22 04:45:19;;;;;;;16.97;7.90;;;;;;;10.15;100.00;96690.78;10359926;28;20312;-74
2022/05/22 04:50:33;;;;;;;12.60;7.00;;;;;;;10.51;100.00;96696.75;10361530;28;20605;-74
2022/05/22 04:55:55;;;;;;;15.77;6.77;;;;;;;10.74;100.00;96704.06;10359378;28;20578;-74
2022/05/22 05:00:55;;;;;;;9.37;6.47;;;;;;;10.85;100.00;96711.63;10342825;28;20280;-74
2022/05/22 05:06:02;;;;;;;10.47;6.53;;;;;;;10.62;100.00;96711.38;10358988;28;20221;-73
2022/05/22 05:11:05;;;;;;;12.88;6.93;;;;;;;10.90;100.00;96713.78;10358205;28;20190;-74
2022/05/22 05:16:15;;;;;;;13.52;6.78;;;;;;;10.91;100.00;96718.03;10343746;28;20177;-74
2022/05/22 05:21:21;;;;;;;15.90;7.20;;;;;;;10.78;100.00;96717.66;10358689;28;20285;-74
2022/05/22 05:26:25;;;;;;;13.73;6.82;;;;;;;10.82;100.00;96711.13;10357881;28;20253;-74
2022/05/22 05:31:28;;;;;;;11.13;6.80;;;;;;;11.11;100.00;96715.16;10358272;28;20197;-74
2022/05/22 05:36:28;;;;;;;14.25;6.63;;;;;;;11.06;100.00;96711.22;10374967;28;20185;-74
2022/05/22 05:41:40;;;;;;;12.85;6.47;;;;;;;11.43;100.00;96701.28;10375597;28;20227;-74
2022/05/22 05:46:44;;;;;;;12.88;6.13;;;;;;;11.40;100.00;96705.06;10374891;28;20300;-74
2022/05/22 05:51:45;;;;;;;15.00;7.35;;;;;;;11.27;100.00;96703.88;10357758;28;20190;-73
2022/05/22 05:56:49;;;;;;;12.35;6.50;;;;;;;11.34;100.00;96700.44;10357392;28;20259;-74
2022/05/22 06:02:14;;;;;;;13.23;6.20;;;;;;;11.84;100.00;96696.06;10379281;28;20309;-74
2022/05/22 06:07:15;;;;;;;14.55;6.18;;;;;;;12.01;100.00;96698.72;10397873;28;20217;-74
2022/05/22 06:12:16;;;;;;;12.52;5.47;;;;;;;12.71;100.00;96692.81;10379113;28;20250;-75
2022/05/22 06:17:38;;;;;;;12.38;5.30;;;;;;;12.82;100.00;96694.25;10359479;28;20220;-75
2022/05/22 06:22:44;;;;;;;14.55;5.45;;;;;;;12.83;99.71;96691.44;10355738;28;20181;-75
2022/05/22 06:28:04;;;;;;;10.20;4.68;;;;;;;14.45;92.43;96666.84;10358257;28;20264;-75
2022/05/22 06:33:29;;;;;;;9.68;4.20;;;;;;;15.08;87.17;96635.56;10373555;28;20192;-76
2022/05/22 06:44:22;;;;;;;11.60;3.88;;;;;;;16.04;76.70;96595.59;10373168;28;20205;-75
2022/05/22 06:49:55;;;;;;;7.13;3.15;;;;;;;15.91;78.47;96610.53;10339193;28;20225;-75
2022/05/22 06:55:12;;;;;;;8.23;3.03;;;;;;;15.42;79.08;96614.78;10354438;28;20244;-75
2022/05/22 07:00:22;;;;;;;8.18;3.25;;;;;;;15.60;75.73;96564.97;10371961;28;20251;-75
2022/05/22 07:05:41;;;;;;;8.65;3.58;;;;;;;16.17;74.34;96564.97;10372152;28;20224;-75
2022/05/22 07:16:40;;;;;;;8.18;3.03;;;;;;;16.27;67.93;96475.56;10354216;28;20199;-76
2022/05/22 07:21:43;;;;;;;7.40;2.67;;;;;;;16.57;66.58;96467.31;10354290;28;20192;-75
2022/05/22 07:27:03;;;;;;;10.98;2.90;;;;;;;17.11;64.04;96431.16;10356247;28;20232;-76
2022/05/22 07:32:16;;;;;;;7.07;2.75;;;;;;;16.94;67.16;96492.41;10353946;28;20680;-75
2022/05/22 07:37:43;;;;;;;6.47;3.00;;;;;;;16.93;65.52;96460.88;10366036;28;20570;-75
2022/05/22 07:43:09;;;;;;;6.45;2.80;;;;;;;17.19;62.88;96404.47;10371233;28;20193;-76
2022/05/22 07:48:29;;;;;;;8.90;2.72;;;;;;;18.07;61.82;96407.69;10370387;28;20229;-75
2022/05/22 07:53:38;;;;;;;9.20;2.72;;;;;;;18.49;58.94;96365.63;10337929;28;20728;-75
2022/05/22 07:58:50;;;;;;;12.55;2.67;;;;;;;17.63;60.87;96396.84;10338804;28;20189;-75
2022/05/22 08:04:16;;;;;;;9.85;3.67;;;;;;;18.19;59.15;96368.88;10353023;28;20236;-75
2022/05/22 08:09:35;;;;;;;8.52;4.00;;;;;;;19.07;55.12;96291.03;10370764;28;20186;-76
2022/05/22 08:14:36;;;;;;;8.63;4.18;;;;;;;18.42;56.45;96328.53;10352894;28;20280;-75
2022/05/22 08:19:37;;;;;;;6.28;3.25;;;;;;;19.27;54.24;96305.13;10370635;28;20680;-76
2022/05/22 08:24:56;;;;;;;5.95;3.05;;;;;;;19.72;54.75;96328.69;10352531;28;20267;-75
2022/05/22 08:30:01;;;;;;;7.05;2.20;;;;;;;19.06;55.58;96342.50;10352767;28;20601;-75
2022/05/22 08:35:06;;;;;;;7.20;2.20;;;;;;;18.93;54.33;96317.91;10352577;28;20188;-75
2022/05/22 08:40:07;;;;;;;6.22;2.40;;;;;;;17.61;56.98;96354.66;10368463;28;20248;-75
2022/05/22 08:45:14;;;;;;;8.13;2.58;;;;;;;17.33;58.81;96402.59;10369863;28;20334;-74
2022/05/22 08:50:15;;;;;;;3.45;2.03;;;;;;;17.15;58.50;96389.19;10375968;28;20239;-74
2022/05/22 08:55:21;;;;;;;7.95;1.88;;;;;;;17.92;57.64;96389.41;10376836;28;20640;-75
2022/05/22 09:00:22;;;;;;;7.88;2.20;;;;;;;18.79;56.22;96380.91;10359161;28;20239;-76
2022/05/22 09:05:24;;;;;;;6.40;2.35;;;;;;;18.97;54.25;96338.50;10376303;28;20216;-75
2022/05/22 09:10:33;;;;;;;7.20;2.20;;;;;;;20.00;51.36;96293.59;10359240;28;20193;-75
2022/05/22 09:15:49;;;;;;;5.85;1.95;;;;;;;18.94;51.10;96261.16;10377232;28;20236;-75
2022/05/22 09:20:56;;;;;;;3.45;1.85;;;;;;;18.75;53.25;96329.31;10360261;28;20247;-75
2022/05/22 09:26:29;;;;;;;7.72;2.42;;;;;;;18.28;56.39;96406.56;10376380;28;20871;-74
2022/05/22 09:31:39;;;;;;;9.98;2.97;;;;;;;17.64;59.25;96462.00;10344472;28;20209;-75
2022/05/22 09:36:58;;;;;;;4.65;2.00;;;;;;;19.81;51.18;96314.09;10376508;28;20616;-74
2022/05/22 09:42:40;;;;;;;4.20;1.90;;;;;;;19.72;50.64;96292.28;10375930;28;20201;-73
2022/05/22 09:47:55;;;;;;;4.63;2.22;;;;;;;20.14;51.62;96323.47;10370406;28;20237;-75
2022/05/22 09:53:04;;;;;;;5.57;2.13;;;;;;;20.22;50.59;96296.53;10376310;28;20319;-74
2022/05/22 09:58:33;;;;;;;8.15;1.90;;;;;;;19.76;53.14;96343.16;10358222;28;20229;-75
2022/05/22 10:03:44;;;;;;;4.75;1.75;;;;;;;20.40;52.11;96338.22;10358461;28;20277;-75
2022/05/22 10:09:14;;;;;;;7.00;1.45;;;;;;;21.70;46.77;96214.75;10374805;28;20217;-75
2022/05/22 10:14:38;;;;;;;5.38;2.10;;;;;;;21.31;49.63;96292.63;10358191;28;20292;-74
2022/05/22 10:20:13;;;;;;;5.43;1.98;;;;;;;22.26;47.19;96270.94;10361985;28;20691;-75
2022/05/22 10:25:45;;;;;;;6.80;1.98;;;;;;;21.69;47.03;96251.28;10356801;28;21010;-74
2022/05/22 10:30:50;;;;;;;5.05;1.73;;;;;;;22.10;46.80;96251.22;10374621;28;20197;-75
2022/05/22 10:35:56;;;;;;;4.25;1.60;;;;;;;22.50;45.43;96226.25;10357095;28;20193;-76
2022/05/22 10:46:16;;;;;;;4.57;1.88;;;;;;;23.98;42.08;96172.94;10374495;28;20228;-76
2022/05/22 10:51:25;;;;;;;6.22;2.13;;;;;;;22.98;42.94;96155.28;10374366;28;20219;-75
2022/05/22 10:56:29;;;;;;;5.93;2.20;;;;;;;21.79;45.30;96188.53;10356393;28;20272;-76
2022/05/22 11:01:32;;;;;;;5.78;2.20;;;;;;;20.95;46.79;96196.03;10385712;28;20201;-76
2022/05/22 11:06:34;;;;;;;4.60;1.83;;;;;;;22.36;45.93;96216.94;10413709;28;20213;-79
2022/05/22 11:11:37;;;;;;;3.20;1.45;;;;;;;21.71;46.28;96217.19;10337848;28;20224;-76
2022/05/22 11:16:38;;;;;;;4.65;1.73;;;;;;;23.17;44.38;96200.44;10351158;28;20189;-77
2022/05/22 11:22:17;;;;;;;5.30;2.00;;;;;;;22.75;44.31;96183.06;10386586;28;20192;-75
2022/05/22 11:27:35;;;;;;;6.75;2.22;;;;;;;22.15;44.51;96160.56;10410595;28;20632;-76
2022/05/22 11:32:57;;;;;;;5.55;2.15;;;;;;;21.62;46.28;96204.50;10386701;28;20740;-76
2022/05/22 11:38:09;;;;;;;6.70;1.60;;;;;;;23.34;43.68;96179.00;10409797;28;20241;-76
2022/05/22 11:43:32;;;;;;;3.25;1.73;;;;;;;21.82;44.79;96146.22;10406105;28;20695;-76
2022/05/22 11:49:03;;;;;;;6.93;2.03;;;;;;;19.93;46.34;96130.69;10406784;28;20244;-77
2022/05/22 11:54:19;;;;;;;3.10;1.50;;;;;;;22.63;44.68;96177.00;10378958;28;20240;-76
2022/05/22 11:59:38;;;;;;;5.28;1.45;;;;;;;21.34;47.75;96209.56;10389228;28;20188;-77
2022/05/22 12:04:55;;;;;;;7.07;2.05;;;;;;;22.59;45.60;96206.09;10399042;28;20188;-77
2022/05/22 12:10:07;;;;;;;3.67;1.60;;;;;;;21.37;45.81;96162.97;10396678;28;20585;-75
2022/05/22 12:15:22;;;;;;;3.42;1.67;;;;;;;21.09;45.31;96134.50;10395980;28;20200;-75
2022/05/22 12:20:31;;;;;;;2.75;1.60;;;;;;;23.07;41.30;96091.53;10394369;28;20712;-75
2022/05/22 12:25:32;;;;;;;6.57;1.50;;;;;;;22.82;44.26;96163.38;10317860;28;20232;-75
2022/05/22 12:30:38;;;;;;;4.15;1.40;;;;;;;22.41;45.63;96195.69;10335574;28;20208;-76
2022/05/22 12:42:18;;;;;;;5.35;1.58;;;;;;;21.80;45.35;96166.16;10415158;28;20560;-75
2022/05/22 12:47:18;;;;;;;4.13;1.40;;;;;;;22.24;45.23;96183.13;10396954;28;20232;-74
2022/05/22 12:52:28;;;;;;;4.07;1.67;;;;;;;22.16;45.12;96164.88;10415104;28;20612;-76
2022/05/22 12:57:28;;;;;;;4.00;1.35;;;;;;;22.35;45.68;96194.00;10415411;28;20240;-76
2022/05/22 13:02:37;;;;;;;2.97;1.40;;;;;;;23.29;42.80;96139.66;10415426;28;20200;-76
2022/05/22 13:07:38;;;;;;;3.97;1.50;;;;;;;21.89;43.67;96104.16;10384062;28;20320;-75
2022/05/22 13:12:39;;;;;;;2.72;1.13;;;;;;;22.44;42.88;96109.78;10357629;28;20321;-75
2022/05/22 13:17:50;;;;;;;3.38;1.40;;;;;;;24.45;39.84;96082.22;10351456;28;20581;-75
2022/05/22 13:23:05;;;;;;;4.00;0.98;;;;;;;23.95;39.45;96045.00;10335573;28;20676;-75
2022/05/22 13:28:18;;;;;;;3.72;1.30;;;;;;;23.21;42.71;96110.69;10339306;28;20639;-75
2022/05/22 13:33:20;;;;;;;5.88;1.20;;;;;;;25.55;37.74;96048.22;10363611;28;20201;-76
2022/05/22 13:38:21;;;;;;;4.15;1.20;;;;;;;26.70;36.40;96052.00;10341801;28;20201;-76
2022/05/22 13:43:52;;;;;;;4.68;1.42;;;;;;;27.22;34.97;96006.81;10340396;28;20209;-75
2022/05/22 13:49:03;;;;;;;6.60;1.48;;;;;;;25.67;38.18;96064.03;10354585;28;20228;-75
2022/05/22 13:54:48;;;;;;;3.30;1.40;;;;;;;25.66;39.34;96081.22;10351284;28;20311;-76
2022/05/22 13:59:56;;;;;;;3.35;1.30;;;;;;;28.10;36.35;96071.50;10343688;28;20224;-76
2022/05/22 14:04:57;;;;;;;4.22;1.40;;;;;;;28.39;34.77;96005.19;10334864;28;20284;-77
2022/05/22 14:09:58;;;;;;;3.53;0.93;;;;;;;29.20;33.94;96026.78;10337208;28;20615;-76
2022/05/22 14:15:24;;;;;;;2.78;1.15;;;;;;;26.40;38.63;96065.53;10330132;28;20198;-75
2022/05/22 14:20:28;;;;;;;3.30;0.98;;;;;;;28.94;35.37;96046.00;10347748;28;20243;-77
2022/05/22 14:25:29;;;;;;;3.03;1.17;;;;;;;28.06;34.80;95994.25;10353217;28;20296;-76
2022/05/22 14:30:33;;;;;;;3.47;1.00;;;;;;;30.35;32.46;95981.31;10371576;28;20189;-77
2022/05/22 14:35:41;;;;;;;4.53;1.40;;;;;;;29.97;31.63;95928.31;10371145;28;20785;-77
2022/05/22 14:40:48;;;;;;;5.93;1.30;;;;;;;26.40;38.07;96036.81;10371091;28;20185;-76
2022/05/22 14:45:51;;;;;;;3.50;1.30;;;;;;;25.91;37.37;95987.28;10369289;28;20217;-75
2022/05/22 14:50:54;;;;;;;4.88;1.65;;;;;;;24.51;39.68;96020.38;10370099;28;20606;-76
2022/05/22 14:56:17;;;;;;;3.50;1.50;;;;;;;24.13;40.08;96008.97;10370197;28;20284;-76
2022/05/22 15:01:26;;;;;;;4.88;1.50;;;;;;;25.21;38.84;96038.78;10352581;28;20277;-76
2022/05/22 15:06:29;;;;;;;5.82;1.58;;;;;;;25.56;39.70;96069.41;10353061;28;20216;-77
2022/05/22 15:11:33;;;;;;;6.22;3.03;;;;;;;26.03;36.71;95980.81;10369740;28;20197;-76
2022/05/22 15:16:37;;;;;;;3.33;1.30;;;;;;;26.70;35.52;95968.72;10352266;28;20653;-76
2022/05/22 15:21:37;;;;;;;5.82;1.50;;;;;;;26.02;37.57;96000.69;10369793;28;20227;-76
2022/05/22 15:26:46;;;;;;;4.57;1.13;;;;;;;27.48;35.66;95998.56;10335404;28;20591;-76
2022/05/22 15:31:46;;;;;;;5.57;1.23;;;;;;;27.63;35.39;95986.88;10369821;28;20194;-77
2022/05/22 15:36:47;;;;;;;2.07;1.27;;;;;;;27.49;34.95;95953.63;10369115;28;20402;-76
2022/05/22 15:41:47;;;;;;;5.88;1.60;;;;;;;25.36;38.66;96002.34;10369787;28;20444;-76
2022/05/22 15:46:56;;;;;;;4.65;1.20;;;;;;;25.21;39.17;96014.66;10361046;28;20784;-76
2022/05/22 15:51:59;;;;;;;3.13;1.20;;;;;;;24.21;40.18;95989.75;10349851;28;20194;-76
2022/05/22 15:57:05;;;;;;;2.08;1.13;;;;;;;26.12;37.68;95993.38;10346479;28;20324;-76
2022/05/22 16:02:29;;;;;;;4.22;1.45;;;;;;;25.01;38.39;95967.22;10356196;28;20650;-76
2022/05/22 16:07:32;;;;;;;5.60;1.15;;;;;;;23.89;41.93;96047.91;10355588;28;20592;-76
2022/05/22 16:12:32;;;;;;;4.80;1.40;;;;;;;21.98;43.92;96040.56;10368236;28;20202;-77
2022/05/22 16:17:34;;;;;;;4.03;1.50;;;;;;;22.10;43.17;96021.78;10366414;28;20288;-76
2022/05/22 16:22:34;;;;;;;3.40;1.60;;;;;;;21.86;44.89;96069.19;10364143;28;20209;-76
2022/05/22 16:27:34;;;;;;;2.67;1.30;;;;;;;22.05;43.51;96049.19;10334446;28;20308;-76
2022/05/22 16:32:36;;;;;;;2.92;1.45;;;;;;;21.03;46.53;96088.31;10347240;28;20190;-76
2022/05/22 16:37:36;;;;;;;4.97;1.65;;;;;;;20.22;47.47;96091.72;10342430;28;20537;-76
2022/05/22 16:42:39;;;;;;;2.28;1.42;;;;;;;19.81;48.27;96114.72;10346582;28;20573;-75
2022/05/22 16:53:01;;;;;;;4.35;1.58;;;;;;;19.64;48.40;96119.88;10361837;28;20756;-75
2022/05/22 16:58:07;;;;;;;3.28;1.30;;;;;;;19.75;48.69;96128.91;10340629;28;20269;-76
2022/05/22 17:03:13;;;;;;;3.88;1.33;;;;;;;19.92;48.57;96135.22;10299569;28;20701;-75
2022/05/22 17:08:17;;;;;;;4.47;1.50;;;;;;;19.29;50.58;96180.88;10336789;28;20638;-75
2022/05/22 17:13:18;;;;;;;4.15;1.30;;;;;;;19.16;49.39;96152.69;10339997;28;20676;-75
2022/05/22 17:18:18;;;;;;;3.42;1.30;;;;;;;19.00;49.56;96140.81;10374695;28;20184;-75
2022/05/22 17:23:24;;;;;;;5.10;1.60;;;;;;;18.31;52.74;96212.53;10369355;28;20235;-76
2022/05/22 17:28:25;;;;;;;4.30;1.20;;;;;;;18.29;52.50;96211.97;10374124;28;20826;-75
2022/05/22 17:33:25;;;;;;;3.15;1.05;;;;;;;18.08;53.48;96229.06;10415079;28;20242;-74
2022/05/22 17:38:27;;;;;;;3.80;1.42;;;;;;;18.23;51.77;96183.66;10415772;28;20280;-76
2022/05/22 17:43:28;;;;;;;5.03;1.45;;;;;;;17.88;53.61;96229.19;10397351;28;20250;-75
2022/05/22 17:48:28;;;;;;;2.83;1.15;;;;;;;17.76;54.62;96242.28;10414955;28;20277;-76
2022/05/22 17:53:40;;;;;;;2.25;1.25;;;;;;;17.64;54.23;96223.59;10414175;28;20261;-75
2022/05/22 17:58:41;;;;;;;5.60;1.65;;;;;;;17.37;55.12;96244.94;10397130;28;20184;-75
2022/05/22 18:03:41;;;;;;;2.83;1.10;;;;;;;17.07;56.19;96266.63;10414104;28;20187;-76
2022/05/22 18:08:42;;;;;;;2.58;1.40;;;;;;;16.94;56.29;96256.09;10411156;28;20216;-75
2022/05/22 18:19:01;;;;;;;2.25;1.38;;;;;;;15.87;61.96;96348.59;10401372;28;20573;-75
2022/05/22 18:29:28;;;;;;;6.47;1.83;;;;;;;13.91;70.88;96441.41;10397682;28;20317;-75
2022/05/22 18:34:29;;;;;;;7.20;2.08;;;;;;;13.22;75.43;96421.44;10412101;28;20258;-75
2022/05/22 18:39:29;;;;;;;6.28;2.45;;;;;;;12.45;80.30;96404.88;10411695;28;20265;-75
2022/05/22 18:44:29;;;;;;;10.38;2.10;;;;;;;12.36;81.65;96373.56;10411824;28;20287;-74
2022/05/22 18:49:33;;;;;;;4.28;1.92;;;;;;;11.82;83.81;96371.75;10411463;28;20216;-74
2022/05/22 18:54:33;;;;;;;5.05;2.47;;;;;;;11.93;85.64;96384.53;10411316;28;20242;-74
2022/05/22 18:59:34;;;;;;;3.25;1.95;;;;;;;11.81;85.44;96376.19;10412066;28;20188;-74
2022/05/22 19:04:35;;;;;;;7.53;3.47;;;;;;;11.14;90.40;96387.13;10396591;28;20200;-75
2022/05/22 19:09:37;;;;;;;4.28;1.88;;;;;;;11.37;91.01;96395.88;10440417;28;20228;-75
2022/05/22 19:14:39;;;;;;;4.25;2.35;;;;;;;11.22;90.77;96384.47;10426613;28;20207;-75
2022/05/22 19:19:40;;;;;;;6.15;2.65;;;;;;;11.15;91.52;96404.47;10393080;28;20185;-74
2022/05/22 19:24:40;;;;;;;3.77;2.50;;;;;;;11.00;94.02;96401.75;10409748;28;20548;-75
2022/05/22 19:29:42;;;;;;;3.90;2.10;;;;;;;10.84;98.66;96406.03;10412889;28;20224;-75
2022/05/22 19:34:43;;;;;;;4.50;2.23;;;;;;;10.84;100.00;96411.25;10409687;28;20196;-75
2022/05/22 19:39:44;;;;;;;3.03;2.10;;;;;;;10.78;100.00;96400.59;10391839;28;20216;-75
2022/05/22 19:44:44;;;;;;;4.37;2.43;;;;;;;10.66;100.00;96394.91;10391919;28;20200;-75
2022/05/22 19:49:47;;;;;;;7.40;2.47;;;;;;;10.57;100.00;96395.91;10409546;28;20223;-74
2022/05/22 20:00:13;;;;;;;3.73;1.87;;;;;;;10.51;100.00;96392.13;10410245;28;20306;-75
2022/05/22 20:05:15;;;;;;;5.77;2.53;;;;;;;10.45;100.00;96390.97;10409209;28;20204;-74
2022/05/22 20:10:18;;;;;;;3.57;2.07;;;;;;;10.50;100.00;96391.28;10409824;28;20196;-75
2022/05/22 20:15:19;;;;;;;3.13;2.00;;;;;;;10.48;100.00;96388.00;10409030;28;20189;-74
2022/05/22 20:20:21;;;;;;;5.20;2.10;;;;;;;10.55;100.00;96382.13;10409857;28;20193;-75
2022/05/22 20:25:21;;;;;;;4.27;2.53;;;;;;;10.62;100.00;96383.09;10408932;28;20331;-74
2022/05/22 20:30:22;;;;;;;6.77;2.37;;;;;;;10.62;100.00;96380.50;10409397;28;20254;-74
2022/05/22 20:35:22;;;;;;;5.03;2.40;;;;;;;10.65;100.00;96391.44;10409101;28;20223;-75
2022/05/22 20:40:23;;;;;;;5.57;2.43;;;;;;;10.74;100.00;96383.59;10409329;28;20268;-75
2022/05/22 20:45:27;;;;;;;4.97;2.40;;;;;;;10.70;100.00;96372.63;10413953;28;20671;-75
2022/05/22 20:50:28;;;;;;;3.90;2.40;;;;;;;10.58;100.00;96373.94;10398926;28;20200;-74
2022/05/22 21:00:50;;;;;;;6.83;2.33;;;;;;;10.48;100.00;96368.88;10416338;28;20195;-74
2022/05/22 21:05:51;;;;;;;6.97;2.23;;;;;;;10.46;100.00;96378.69;10415582;28;20211;-74
2022/05/22 21:10:51;;;;;;;7.27;2.60;;;;;;;10.42;100.00;96372.97;10415802;28;20192;-74
2022/05/22 21:15:56;;;;;;;6.53;2.30;;;;;;;10.28;100.00;96357.88;10415511;28;20605;-73
2022/05/22 21:20:57;;;;;;;5.63;1.90;;;;;;;10.22;100.00;96353.31;10397491;28;20192;-73
2022/05/22 21:31:24;;;;;;;5.17;2.50;;;;;;;9.95;100.00;96357.84;10415338;28;20189;-72
2022/05/22 21:36:24;;;;;;;3.23;2.20;;;;;;;9.87;100.00;96350.78;10414877;28;20195;-72
2022/05/22 21:41:25;;;;;;;4.43;2.00;;;;;;;9.82;100.00;96353.09;10414596;28;20215;-73
2022/05/22 21:46:25;;;;;;;4.47;2.60;;;;;;;9.72;100.00;96358.44;10414395;28;20224;-73
2022/05/22 21:51:25;;;;;;;6.83;2.33;;;;;;;9.56;100.00;96350.56;10414009;28;20188;-73
2022/05/22 21:56:26;;;;;;;8.10;2.40;;;;;;;9.47;100.00;96347.09;10413563;28;20240;-74
2022/05/22 22:01:28;;;;;;;5.03;2.70;;;;;;;9.31;100.00;96349.66;10412597;28;20621;-74
2022/05/22 22:06:28;;;;;;;7.37;2.50;;;;;;;9.18;100.00;96356.13;10410864;28;20223;-74
2022/05/22 22:11:31;;;;;;;5.53;2.57;;;;;;;9.05;100.00;96345.28;10411247;28;20207;-74
2022/05/22 22:16:33;;;;;;;3.87;2.63;;;;;;;8.88;100.00;96353.06;10410860;28;20661;-74
2022/05/22 22:21:37;;;;;;;2.97;2.33;;;;;;;8.84;100.00;96364.78;10410963;28;20203;-74
2022/05/22 22:26:37;;;;;;;4.47;2.50;;;;;;;8.74;100.00;96356.22;10409776;28;20232;-74
2022/05/22 22:31:38;;;;;;;6.53;2.50;;;;;;;8.66;100.00;96358.78;10393168;28;20227;-74
2022/05/22 22:36:38;;;;;;;5.47;2.50;;;;;;;8.54;100.00;96351.19;10389712;28;20210;-73
2022/05/22 22:41:39;;;;;;;6.13;2.53;;;;;;;8.29;100.00;96349.38;10368006;28;20204;-73
2022/05/22 22:46:40;;;;;;;4.97;2.70;;;;;;;8.38;100.00;96348.44;10350768;28;20371;-74
2022/05/22 22:51:40;;;;;;;3.83;2.67;;;;;;;8.24;100.00;96348.97;10367948;28;20250;-72
2022/05/22 23:02:00;;;;;;;5.00;2.60;;;;;;;8.16;100.00;96352.34;10352241;28;20217;-73
2022/05/22 23:07:02;;;;;;;3.03;2.70;;;;;;;8.06;100.00;96354.22;10366696;28;20307;-73
2022/05/22 23:12:04;;;;;;;8.17;2.60;;;;;;;7.94;100.00;96351.00;10366984;28;20197;-72
2022/05/22 23:17:04;;;;;;;5.20;2.20;;;;;;;7.93;100.00;96354.59;10366176;28;20574;-74
2022/05/22 23:22:05;;;;;;;2.70;2.50;;;;;;;7.88;100.00;96355.03;10366336;28;20273;-73
2022/05/22 23:27:06;;;;;;;4.80;2.47;;;;;;;7.92;100.00;96352.97;10366463;28;20251;-73
2022/05/22 23:32:07;;;;;;;5.07;2.50;;;;;;;7.86;100.00;96338.72;10366657;28;20291;-73
2022/05/22 23:37:08;;;;;;;2.23;2.03;;;;;;;7.89;100.00;96334.97;10366305;28;20284;-74
2022/05/22 23:42:09;;;;;;;2.47;2.27;;;;;;;7.81;100.00;96335.72;10348867;28;20247;-73
2022/05/22 23:47:09;;;;;;;3.07;2.30;;;;;;;7.80;100.00;96328.88;10365376;28;20606;-73
2022/05/22 23:52:14;;;;;;;5.10;2.30;;;;;;;7.83;100.00;96334.63;10365974;28;20193;-74
2022/05/22 23:57:15;;;;;;;3.07;2.80;;;;;;;7.77;100.00;96329.19;10365584;28;20229;-73
